Country Estates (222, 637) Station Data

Red Flag Warning: No
Fire Weather Zone: 250
SDGE Region: Ramona
Lat/Lon: 33.029/-116.793

Observations

Time Wind Speed/Gust Temp(F) RH Fuel Moist Fuel Temp(F) Dewpt(F) Tmax(F) Tmin(F) Accum Precip 10-min Precip SL Press(mb)
4/26 2:50am 41 5 G 7 53° 73% - - 44° 54.6° 51.9° - - -
4/26 2:40am 43 4 G 7 53° 72% - - 45° 54.6° 51.9° - - -
4/26 2:30am 38 2 G 3 53° 76% - - 46° 54.6° 51.9° - - -
4/26 2:20am 3 1 G 2 52° 75% - - 45° 54.6° 51.9° - - -
4/26 2:10am 33 5 G 8 53° 72% - - 44° 54.6° 52.1° - - -
4/26 2:00am 43 7 G 8 53° 73% - - 44° 54.6° 52.1° - - -
4/26 1:50am 31 3 G 8 53° 75% - - 45° 54.6° 52.4° - - -
4/26 1:40am 331 2 G 2 53° 75% - - 45° 54.6° 52.5° - - -
4/26 1:30am 45 2 G 4 54° 73% - - 45° 54.6° 52.5° - - -
4/26 1:20am 45 3 G 4 54° 74% - - 46° 54.6° 52.5° - - -
4/26 1:10am 8 1 G 2 53° 75% - - 46° 54.6° 52.5° - - -
4/26 1:00am 336 0 G 1 53° 75% - - 45° 54.6° 52.5° - - -
4/26 12:50am 317 1 G 2 53° 75% - - 46° 54.6° 52.5° - - -
4/26 12:40am 335 1 G 2 53° 76% - - 46° 54.6° 52.5° - - -
4/26 12:30am 265 1 G 2 53° 75% - - 46° 54.6° 52.7° - - -
4/26 12:20am 113 1 G 2 54° 74% - - 46° 54.6° 53.4° - - -
4/26 12:10am 246 1 G 4 54° 73% - - 46° 54.6° 54° - - -
4/26 12:00am 55 1 G 5 54° 75% - - 46° 65.2° 51.8° - - -
4/25 11:50pm 9 1 G 2 53° 76% - - 46° 65.2° 51.8° - - -
4/25 11:40pm 74 3 G 5 54° 73% - - 46° 65.2° 51.8° - - -
4/25 11:30pm 70 6 G 7 55° 73% - - 46° 65.2° 51.8° - - -
4/25 11:20pm 54 5 G 7 55° 73% - - 46° 65.2° 51.8° - - -
4/25 11:10pm 46 6 G 7 54° 73% - - 46° 65.2° 51.8° - - -
4/25 11:00pm 29 6 G 7 54° 72% - - 45° 65.2° 51.8° - - -
4/25 10:50pm 33 4 G 5 55° 70% - - 45° 65.2° 51.8° - - -
4/25 10:40pm 53 4 G 7 54° 71% - - 45° 65.2° 51.8° - - -
4/25 10:30pm 36 6 G 8 54° 71% - - 45° 65.2° 51.8° - - -
4/25 10:20pm 41 7 G 8 54° 70% - - 45° 65.2° 51.8° - - -
4/25 10:10pm 38 7 G 9 54° 69% - - 44° 65.2° 51.8° - - -
4/25 10:00pm 36 7 G 8 55° 69% - - 44° 65.2° 51.8° - - -
4/25 9:50pm 32 5 G 6 55° 67% - - 44° 65.2° 51.8° - - -
4/25 9:40pm 30 5 G 6 55° 69% - - 45° 65.2° 51.8° - - -
4/25 9:30pm 35 5 G 6 55° 69% - - 45° 65.2° 51.8° - - -
4/25 9:20pm 44 3 G 6 55° 69% - - 45° 65.2° 51.8° - - -
4/25 9:10pm 31 2 G 4 55° 68% - - 45° 65.2° 51.8° - - -
4/25 9:00pm 14 1 G 4 55° 68% - - 45° 65.2° 51.8° - - -
4/25 8:50pm 41 2 G 4 55° 68% - - 45° 65.2° 51.8° - - -
4/25 8:40pm 23 0 G 1 55° 67% - - 45° 65.2° 51.8° - - -
4/25 8:30pm 134 2 G 4 56° 67% - - 45° 65.2° 51.8° - - -
4/25 8:20pm 301 2 G 5 56° 67% - - 45° 65.2° 51.8° - - -
4/25 8:10pm 304 3 G 6 56° 66% - - 45° 65.2° 51.8° - - -
4/25 8:00pm 281 3 G 5 56° 66% - - 45° 65.2° 51.8° - - -
4/25 7:50pm 243 2 G 4 57° 65% - - 45° 65.2° 51.8° - - -
4/25 7:40pm 199 1 G 3 57° 64% - - 45° 65.2° 51.8° - - -
4/25 7:30pm 270 2 G 3 58° 63% - - 46° 65.2° 51.8° - - -
4/25 7:20pm 246 2 G 6 58° 63% - - 46° 65.2° 51.8° - - -
4/25 7:10pm 272 6 G 9 59° 63% - - 46° 65.2° 51.8° - - -
4/25 7:00pm 272 6 G 9 59° 63% - - 46° 65.2° 51.8° - - -
4/25 6:50pm 289 7 G 11 60° 61% - - 46° 65.2° 51.8° - - -
4/25 6:40pm 279 6 G 10 60° 60% - - 46° 65.2° 51.8° - - -
4/25 6:30pm 253 6 G 12 61° 59% - - 46° 65.2° 51.8° - - -
4/25 6:20pm 227 4 G 10 61° 59% - - 46° 65.2° 51.8° - - -
4/25 6:10pm 241 6 G 11 61° 58% - - 46° 65.2° 51.8° - - -
4/25 6:00pm 231 5 G 11 61° 59% - - 47° 65.2° 51.8° - - -
4/25 5:50pm 247 8 G 13 62° 59% - - 47° 65.2° 51.8° - - -
4/25 5:40pm 240 7 G 15 62° 60% - - 48° 65.2° 51.8° - - -
4/25 5:30pm 239 7 G 14 63° 58% - - 48° 65.2° 51.8° - - -
4/25 5:20pm 240 7 G 15 63° 58% - - 48° 65.2° 51.8° - - -
4/25 5:10pm 235 6 G 14 63° 58% - - 48° 65.2° 51.8° - - -
4/25 5:00pm 245 6 G 12 63° 57% - - 47° 65.2° 51.8° - - -
4/25 4:50pm 239 4 G 11 63° 57% - - 47° 65.2° 51.8° - - -
4/25 4:40pm 262 7 G 12 63° 56% - - 47° 65.2° 51.8° - - -
4/25 4:30pm 233 5 G 12 63° 56% - - 47° 65.2° 51.8° - - -
4/25 4:20pm 262 7 G 13 63° 57% - - 47° 65.2° 51.8° - - -
4/25 4:10pm 246 8 G 13 63° 55% - - 47° 65.2° 51.8° - - -
4/25 4:00pm 237 6 G 15 63° 56% - - 47° 65.2° 51.8° - - -
4/25 3:50pm 247 8 G 15 63° 57% - - 47° 65.2° 51.8° - - -
4/25 3:40pm 243 6 G 12 63° 56% - - 47° 65.2° 51.8° - - -
4/25 3:30pm 248 9 G 17 63° 57% - - 47° 65.2° 51.8° - - -
4/25 3:20pm 237 7 G 16 63° 56% - - 48° 65.2° 51.8° - - -
4/25 3:10pm 252 8 G 14 63° 57% - - 47° 65.2° 51.8° - - -
4/25 3:00pm 245 6 G 12 63° 55% - - 47° 65.2° 51.8° - - -
4/25 2:50pm 248 6 G 12 63° 55% - - 47° 65.2° 51.8° - - -
4/25 2:40pm 260 6 G 13 63° 54% - - 46° 65.2° 51.8° - - -
4/25 2:30pm 237 6 G 14 64° 54% - - 47° 65.2° 51.8° - - -
4/25 2:20pm 249 5 G 10 64° 52% - - 46° 65.2° 51.8° - - -
4/25 2:10pm 254 8 G 14 63° 54% - - 46° 65.2° 51.8° - - -
4/25 2:00pm 249 9 G 15 63° 54% - - 46° 65.2° 51.8° - - -
4/25 1:50pm 247 6 G 15 64° 52% - - 46° 65.2° 51.8° - - -
4/25 1:40pm 259 5 G 9 63° 53% - - 46° 65.2° 51.8° - - -
4/25 1:30pm 240 6 G 14 64° 51% - - 46° 65.2° 51.8° - - -
4/25 1:20pm 246 8 G 16 64° 49% - - 44° 65.2° 51.8° - - -
4/25 1:10pm 257 5 G 12 64° 49% - - 44° 65.2° 51.8° - - -
4/25 1:00pm 236 5 G 15 64° 50% - - 44° 65.2° 51.8° - - -
4/25 12:50pm 236 6 G 13 63° 49% - - 44° 64.2° 51.8° - - -
4/25 12:40pm 239 7 G 16 63° 50% - - 44° 64.1° 51.8° - - -
4/25 12:30pm 243 7 G 18 63° 52% - - 45° 64.1° 51.8° - - -
4/25 12:20pm 230 6 G 17 63° 53% - - 45° 64.1° 51.8° - - -
4/25 12:10pm 229 5 G 10 63° 51% - - 44° 63.8° 51.8° - - -
4/25 12:00pm 236 7 G 15 63° 51% - - 44° 63.8° 51.8° - - -
4/25 11:50am 230 6 G 13 62° 51% - - 44° 63.3° 51.8° - - -
4/25 11:40am 231 4 G 14 62° 54% - - 45° 62.9° 51.8° - - -
4/25 11:30am 215 6 G 12 62° 55% - - 45° 62.5° 51.8° - - -
4/25 11:20am 230 6 G 12 61° 54% - - 45° 62.5° 51.8° - - -
4/25 11:10am 268 5 G 13 61° 55% - - 45° 61.7° 51.8° - - -
4/25 11:00am 208 4 G 9 60° 57% - - 45° 61.2° 51.8° - - -
4/25 10:50am 205 3 G 7 59° 61% - - 46° 61.2° 51.8° - - -
4/25 10:40am 233 3 G 6 59° 61% - - 46° 61.2° 51.8° - - -
4/25 10:30am 204 3 G 9 60° 60% - - 46° 61.2° 51.8° - - -
4/25 10:20am 196 3 G 8 59° 64% - - 47° 60.3° 51.8° - - -
4/25 10:10am 215 3 G 6 59° 64% - - 46° 59.7° 51.8° - - -
4/25 10:00am 217 3 G 6 58° 65% - - 46° 59.7° 51.8° - - -
4/25 9:50am 195 5 G 11 59° 67% - - 48° 59.7° 51.8° - - -
4/25 9:40am 209 3 G 9 57° 70% - - 48° 57.6° 51.8° - - -
4/25 9:30am 217 3 G 6 57° 71% - - 48° 57.5° 51.8° - - -
4/25 9:20am 208 4 G 10 57° 71% - - 48° 57.4° 51.8° - - -
4/25 9:10am 214 3 G 10 56° 76% - - 48° 57.1° 51.8° - - -
4/25 9:00am 213 4 G 9 55° 77% - - 48° 56° 51.8° - - -
4/25 8:50am 193 5 G 10 56° 77% - - 49° 56° 51.8° - - -
4/25 8:40am 202 4 G 9 55° 79% - - 48° 55° 51.8° - - -
4/25 8:30am 211 3 G 8 55° 81% - - 49° 54.8° 51.8° - - -
4/25 8:20am 226 3 G 7 54° 82% - - 49° 54.5° 51.8° - - -
4/25 8:10am 201 3 G 9 54° 83% - - 49° 54.5° 51.8° - - -
4/25 8:00am 211 2 G 6 54° 84% - - 49° 54.1° 51.8° - - -
4/25 7:50am 211 3 G 8 53° 85% - - 49° 53.8° 51.8° - - -
4/25 7:40am 203 4 G 8 53° 85% - - 49° 53.8° 51.8° - - -
4/25 7:30am 192 3 G 6 53° 85% - - 49° 53.8° 51.8° - - -
4/25 7:20am 182 3 G 5 53° 85% - - 49° 53.8° 51.8° - - -
4/25 7:10am 200 2 G 5 53° 86% - - 49° 53.8° 51.8° - - -
4/25 7:00am 189 3 G 4 53° 86% - - 48° 53.8° 51.8° - - -
4/25 6:50am 195 2 G 4 53° 85% - - 48° 53.8° 51.8° - - -
4/25 6:40am 187 3 G 5 52° 85% - - 48° 53.8° 51.8° - - -
4/25 6:30am 185 4 G 6 52° 85% - - 48° 53.8° 51.8° - - -
4/25 6:20am 185 5 G 7 52° 85% - - 48° 53.8° 51.8° - - -
4/25 6:10am 209 3 G 7 52° 85% - - 48° 53.8° 51.8° - - -
4/25 6:00am 203 3 G 6 52° 85% - - 48° 53.8° 51.8° - - -
4/25 5:50am 215 1 G 6 52° 85% - - 48° 53.8° 51.8° - - -
4/25 5:40am 207 2 G 6 52° 85% - - 48° 53.8° 51.8° - - -
4/25 5:30am 209 2 G 6 52° 84% - - 48° 53.8° 51.9° - - -
4/25 5:20am 198 2 G 4 52° 84% - - 48° 53.8° 52.1° - - -
4/25 5:10am 210 2 G 5 52° 84% - - 48° 53.8° 52.1° - - -
4/25 5:00am 193 3 G 6 52° 84% - - 48° 53.8° 52.1° - - -
4/25 4:50am 204 2 G 5 52° 84% - - 48° 53.8° 52.1° - - -
4/25 4:40am 207 2 G 5 52° 84% - - 48° 53.8° 52.1° - - -
4/25 4:30am 215 2 G 6 52° 84% - - 47° 53.8° 52.1° - - -
4/25 4:20am 211 3 G 6 52° 83% - - 47° 53.8° 52.1° - - -
4/25 4:10am 208 3 G 8 53° 83% - - 47° 53.8° 52.3° - - -
4/25 4:00am 201 3 G 6 53° 83% - - 48° 53.8° 52.3° - - -
4/25 3:50am 207 4 G 14 53° 83% - - 48° 53.8° 52.3° - - -
4/25 3:40am 194 7 G 11 53° 84% - - 48° 53.8° 52.3° - - -
4/25 3:30am 197 5 G 9 53° 85% - - 48° 53.8° 52.4° - - -
4/25 3:20am 188 6 G 11 53° 85% - - 48° 53.8° 52.4° - - -
4/25 3:10am 193 7 G 14 53° 85% - - 48° 53.8° 52.5° - - -
4/25 3:00am 199 5 G 10 53° 85% - - 48° 53.8° 52.6° - - -
4/25 2:50am 197 5 G 10 53° 84% - - 48° 53.8° 52.7° - - -
4/25 2:40am 208 3 G 7 53° 83% - - 48° 53.8° 52.7° - - -
4/25 2:30am 204 5 G 11 53° 82% - - 48° 53.8° 52.7° - - -
4/25 2:20am 215 3 G 7 53° 82% - - 48° 53.8° 52.7° - - -
4/25 2:10am 209 4 G 8 53° 81% - - 48° 53.8° 52.7° - - -
4/25 2:00am 213 3 G 7 53° 81% - - 47° 53.8° 52.7° - - -
4/25 1:50am 208 4 G 7 53° 80% - - 47° 53.8° 52.7° - - -
4/25 1:40am 196 3 G 7 53° 80% - - 47° 53.8° 52.7° - - -
4/25 1:30am 180 5 G 11 53° 80% - - 47° 53.8° 52.7° - - -
4/25 1:20am 183 7 G 13 53° 82% - - 48° 53.8° 52.7° - - -
4/25 1:10am 185 6 G 11 53° 82% - - 48° 53.8° 52.7° - - -
4/25 1:00am 186 8 G 13 53° 83% - - 48° 53.8° 52.7° - - -
4/25 12:50am 191 7 G 12 53° 83% - - 48° 53.8° 52.7° - - -
4/25 12:40am 190 6 G 11 53° 81% - - 48° 53.8° 52.9° - - -
4/25 12:30am 188 5 G 8 54° 79% - - 47° 53.8° 53° - - -
4/25 12:20am 194 4 G 8 53° 80% - - 47° 53.7° 53° - - -
4/25 12:10am 193 4 G 9 53° 81% - - 47° 53.5° 53° - - -
4/25 12:00am 177 7 G 11 53° 81% - - 48° 69.3° 51.2° - - -
4/24 11:50pm 177 6 G 9 54° 81% - - 48° 69.3° 51.2° - - -
4/24 11:40pm 176 6 G 10 54° 81% - - 48° 69.3° 51.2° - - -
4/24 11:30pm 203 3 G 6 54° 81% - - 48° 69.3° 51.2° - - -
4/24 11:20pm 201 5 G 10 54° 81% - - 48° 69.3° 51.2° - - -
4/24 11:10pm 222 3 G 7 54° 82% - - 48° 69.3° 51.2° - - -
4/24 11:00pm 212 4 G 10 54° 83% - - 49° 69.3° 51.2° - - -
4/24 10:50pm 202 5 G 11 54° 83% - - 49° 69.3° 51.2° - - -
4/24 10:40pm 202 5 G 10 54° 83% - - 49° 69.3° 51.2° - - -
4/24 10:30pm 200 5 G 10 54° 84% - - 49° 69.3° 51.2° - - -
4/24 10:20pm 201 5 G 10 54° 83% - - 49° 69.3° 51.2° - - -
4/24 10:10pm 199 6 G 9 54° 82% - - 49° 69.3° 51.2° - - -
4/24 10:00pm 193 6 G 10 55° 82% - - 49° 69.3° 51.2° - - -
4/24 9:50pm 199 4 G 10 55° 80% - - 49° 69.3° 51.2° - - -
4/24 9:40pm 210 2 G 6 55° 80% - - 49° 69.3° 51.2° - - -
4/24 9:30pm 205 3 G 6 55° 79% - - 49° 69.3° 51.2° - - -
4/24 9:20pm 200 3 G 7 55° 79% - - 49° 69.3° 51.2° - - -
4/24 9:10pm 193 5 G 8 55° 78% - - 49° 69.3° 51.2° - - -
4/24 9:00pm 191 5 G 9 55° 77% - - 48° 69.3° 51.2° - - -
4/24 8:50pm 186 5 G 8 55° 77% - - 48° 69.3° 51.2° - - -
4/24 8:40pm 190 5 G 7 55° 78% - - 49° 69.3° 51.2° - - -
4/24 8:30pm 199 4 G 8 56° 78% - - 49° 69.3° 51.2° - - -
4/24 8:20pm 195 4 G 7 56° 78% - - 49° 69.3° 51.2° - - -
4/24 8:10pm 199 4 G 9 56° 77% - - 49° 69.3° 51.2° - - -
4/24 8:00pm 210 4 G 8 57° 77% - - 49° 69.3° 51.2° - - -
4/24 7:50pm 215 4 G 9 57° 76% - - 49° 69.3° 51.2° - - -
4/24 7:40pm 200 6 G 11 57° 75% - - 49° 69.3° 51.2° - - -
4/24 7:30pm 194 6 G 10 57° 74% - - 49° 69.3° 51.2° - - -
4/24 7:20pm 198 7 G 11 58° 73% - - 49° 69.3° 51.2° - - -
4/24 7:10pm 208 4 G 10 58° 72% - - 49° 69.3° 51.2° - - -
4/24 7:00pm 199 6 G 10 59° 71% - - 49° 69.3° 51.2° - - -
4/24 6:50pm 219 4 G 9 59° 70% - - 49° 69.3° 51.2° - - -
4/24 6:40pm 210 5 G 10 59° 70% - - 49° 69.3° 51.2° - - -
4/24 6:30pm 230 5 G 10 60° 68% - - 49° 69.3° 51.2° - - -
4/24 6:20pm 223 5 G 10 60° 67% - - 49° 69.3° 51.2° - - -
4/24 6:10pm 223 4 G 9 61° 65% - - 49° 69.3° 51.2° - - -
4/24 6:00pm 211 5 G 10 61° 65% - - 49° 69.3° 51.2° - - -